Time;durP1;ratioP1;P1;durP2;ratioP2;P2;SDS_P1;SDS_P2;PMS_P1;PMS_P2;Temp;Humidity;BMP_temperature;BMP_pressure;BME280_temperature;BME280_humidity;BME280_pressure;Samples;Min_cycle;Max_cycle;Signal;HPM_P1;HPM_P2
2023/12/02 00:01:37;;;;;;;27.35;13.18;;;;;;;-2.55;100.00;100935.97;5112536;28;20116;-52
2023/12/02 00:04:05;;;;;;;29.50;13.73;;;;;;;-2.54;100.00;100939.38;5112386;28;20533;-46
2023/12/02 00:06:34;;;;;;;27.65;12.45;;;;;;;-2.57;100.00;100942.00;5112263;28;20080;-50
2023/12/02 00:09:02;;;;;;;22.90;11.80;;;;;;;-2.53;100.00;100940.25;5112253;28;20043;-53
2023/12/02 00:11:31;;;;;;;23.60;11.50;;;;;;;-2.53;100.00;100935.13;5099591;28;20055;-50
2023/12/02 00:13:59;;;;;;;26.70;12.50;;;;;;;-2.55;100.00;100928.25;5112301;28;20043;-53
2023/12/02 00:16:28;;;;;;;28.02;13.00;;;;;;;-2.53;100.00;100930.81;5111123;28;20537;-52
2023/12/02 00:18:56;;;;;;;31.75;14.15;;;;;;;-2.64;100.00;100924.91;5107957;28;20060;-51
2023/12/02 00:21:25;;;;;;;28.85;13.20;;;;;;;-2.63;100.00;100919.75;5110994;28;20138;-52
2023/12/02 00:23:53;;;;;;;24.83;11.50;;;;;;;-2.61;100.00;100919.72;5108196;28;20383;-52
2023/12/02 00:26:21;;;;;;;30.40;13.55;;;;;;;-2.59;100.00;100923.13;5108346;28;20060;-52
2023/12/02 00:28:49;;;;;;;28.58;12.48;;;;;;;-2.59;100.00;100916.28;5112138;28;20056;-46
2023/12/02 00:31:17;;;;;;;25.33;12.48;;;;;;;-2.57;100.00;100922.25;5112023;28;20442;-46
2023/12/02 00:33:50;;;;;;;24.75;12.25;;;;;;;-2.53;100.00;100923.09;5111890;28;20483;-48
2023/12/02 00:36:18;;;;;;;25.02;12.15;;;;;;;-2.56;100.00;100929.09;5111854;28;20048;-48
2023/12/02 00:38:46;;;;;;;24.60;11.73;;;;;;;-2.60;100.00;100922.28;5111833;28;20395;-47
2023/12/02 00:41:14;;;;;;;25.80;12.35;;;;;;;-2.60;100.00;100922.28;5115116;28;20044;-50
2023/12/02 00:43:43;;;;;;;25.15;12.27;;;;;;;-2.59;100.00;100920.53;5114813;28;20047;-49
2023/12/02 00:46:11;;;;;;;24.10;11.05;;;;;;;-2.58;100.00;100923.13;5112587;28;20047;-50
2023/12/02 00:48:39;;;;;;;22.90;11.70;;;;;;;-2.57;100.00;100927.41;5115450;28;20585;-45
2023/12/02 00:51:09;;;;;;;26.73;12.82;;;;;;;-2.57;100.00;100929.97;5115961;28;20040;-46
2023/12/02 00:53:37;;;;;;;26.15;13.10;;;;;;;-2.57;100.00;100932.53;5115985;28;20506;-45
2023/12/02 00:56:07;;;;;;;24.58;11.82;;;;;;;-2.55;100.00;100920.53;5113655;28;20491;-46
2023/12/02 00:58:35;;;;;;;23.48;11.82;;;;;;;-2.58;100.00;100917.09;5112626;28;20050;-46
2023/12/02 01:01:09;;;;;;;25.05;11.50;;;;;;;-2.65;100.00;100924.03;5114882;28;20074;-46
2023/12/02 01:03:37;;;;;;;21.70;11.00;;;;;;;-2.62;100.00;100921.47;5115639;28;20371;-47
2023/12/02 01:06:06;;;;;;;25.00;11.98;;;;;;;-2.68;100.00;100924.06;5115574;28;20047;-45
2023/12/02 01:08:35;;;;;;;22.25;11.48;;;;;;;-2.67;100.00;100924.91;5115407;28;20467;-46
2023/12/02 01:11:04;;;;;;;24.05;11.45;;;;;;;-2.66;100.00;100922.31;5111903;28;20051;-48
2023/12/02 01:13:32;;;;;;;23.02;11.77;;;;;;;-2.63;100.00;100919.75;5093700;28;20475;-46
2023/12/02 01:16:00;;;;;;;23.52;12.02;;;;;;;-2.63;100.00;100922.31;5115387;28;20394;-44
2023/12/02 01:18:29;;;;;;;24.85;12.05;;;;;;;-2.60;100.00;100917.13;5112174;28;20135;-45
2023/12/02 01:20:57;;;;;;;25.95;11.57;;;;;;;-2.63;100.00;100922.31;5113297;28;20078;-48
2023/12/02 01:23:25;;;;;;;25.83;12.05;;;;;;;-2.58;100.00;100920.56;5115219;28;20057;-49
2023/12/02 01:25:55;;;;;;;25.73;12.35;;;;;;;-2.57;100.00;100919.66;5115314;28;20059;-49
2023/12/02 01:28:23;;;;;;;26.30;11.75;;;;;;;-2.56;100.00;100918.81;5115134;28;20043;-47
2023/12/02 01:30:51;;;;;;;26.88;13.20;;;;;;;-2.56;100.00;100920.53;5114780;28;20047;-48
2023/12/02 01:33:19;;;;;;;24.85;11.43;;;;;;;-2.58;100.00;100920.56;5111321;28;20044;-46
2023/12/02 01:35:50;;;;;;;26.58;11.77;;;;;;;-2.58;100.00;100917.97;5111588;28;20051;-47
2023/12/02 01:38:18;;;;;;;27.02;11.52;;;;;;;-2.59;100.00;100924.00;5111736;28;20054;-46
2023/12/02 01:40:46;;;;;;;23.85;11.75;;;;;;;-2.62;100.00;100926.59;5114227;28;20067;-45
2023/12/02 01:43:25;;;;;;;22.45;10.98;;;;;;;-2.68;100.00;100924.06;5115122;28;20079;-48
2023/12/02 01:45:54;;;;;;;26.15;11.25;;;;;;;-2.61;100.00;100923.13;5114991;28;20038;-47
2023/12/02 01:48:25;;;;;;;25.08;11.68;;;;;;;-2.63;100.00;100919.75;5114817;28;20410;-46
2023/12/02 01:50:53;;;;;;;23.52;11.50;;;;;;;-2.65;100.00;100939.50;5114094;28;20570;-47
2023/12/02 01:53:22;;;;;;;24.00;11.80;;;;;;;-2.65;100.00;100942.06;5096167;28;20070;-48
2023/12/02 01:55:53;;;;;;;24.52;11.38;;;;;;;-2.67;100.00;100940.38;5095990;28;20050;-53
2023/12/02 01:58:23;;;;;;;21.75;10.45;;;;;;;-2.65;100.00;100947.22;5094873;28;20051;-53
2023/12/02 02:00:51;;;;;;;26.02;12.50;;;;;;;-2.64;100.00;100940.38;5111966;28;20043;-51
2023/12/02 02:03:19;;;;;;;23.98;11.55;;;;;;;-2.67;100.00;100951.53;5110905;28;20044;-49
2023/12/02 02:05:48;;;;;;;23.55;11.77;;;;;;;-2.62;100.00;100938.59;5111076;28;20074;-52
2023/12/02 02:08:16;;;;;;;24.30;12.05;;;;;;;-2.67;100.00;100930.94;5110891;28;20158;-49
2023/12/02 02:10:44;;;;;;;25.52;12.40;;;;;;;-2.66;100.00;100940.34;5110049;28;20039;-53
2023/12/02 02:13:12;;;;;;;27.50;12.23;;;;;;;-2.66;100.00;100947.22;5110796;28;20040;-49
2023/12/02 02:15:42;;;;;;;25.60;12.50;;;;;;;-2.66;100.00;100940.34;5111501;28;20040;-50
2023/12/02 02:18:10;;;;;;;25.63;12.40;;;;;;;-2.70;100.00;100943.81;5110976;28;20097;-50
2023/12/02 02:20:38;;;;;;;25.65;11.43;;;;;;;-2.67;100.00;100945.50;5110686;28;20051;-52
2023/12/02 02:23:08;;;;;;;23.27;11.55;;;;;;;-2.63;100.00;100944.63;5110961;28;20108;-53
2023/12/02 02:25:37;;;;;;;25.83;12.00;;;;;;;-2.68;100.00;100943.84;5094018;28;20113;-49
2023/12/02 02:28:05;;;;;;;24.98;12.23;;;;;;;-2.70;100.00;100941.25;5095957;28;20062;-49
2023/12/02 02:30:33;;;;;;;28.73;12.82;;;;;;;-2.70;100.00;100940.41;5114051;28;20417;-50
2023/12/02 02:33:01;;;;;;;24.13;11.95;;;;;;;-2.67;100.00;100948.09;5113985;28;20126;-51
2023/12/02 02:35:31;;;;;;;23.83;11.13;;;;;;;-2.70;100.00;100942.97;5113335;28;20101;-50
2023/12/02 02:38:00;;;;;;;26.42;11.55;;;;;;;-2.71;100.00;100949.84;5110790;28;20043;-50
2023/12/02 02:40:29;;;;;;;27.60;12.90;;;;;;;-2.68;100.00;100952.41;5112009;28;20047;-50
2023/12/02 02:42:57;;;;;;;24.98;12.48;;;;;;;-2.72;100.00;100949.00;5113314;28;20118;-50
2023/12/02 02:45:26;;;;;;;27.80;12.73;;;;;;;-2.70;100.00;100948.97;5113391;28;20081;-51
2023/12/02 02:47:54;;;;;;;25.10;12.43;;;;;;;-2.74;100.00;100961.03;5110296;28;20085;-50
2023/12/02 02:50:22;;;;;;;26.30;12.60;;;;;;;-2.73;100.00;100949.00;5111039;28;20450;-52
2023/12/02 02:52:51;;;;;;;24.88;11.38;;;;;;;-2.67;100.00;100954.13;5113502;28;20074;-52
2023/12/02 02:55:19;;;;;;;22.88;10.95;;;;;;;-2.68;100.00;100954.97;5113492;28;20040;-52
2023/12/02 02:57:48;;;;;;;24.95;12.02;;;;;;;-2.61;100.00;100959.19;5111299;28;20079;-51
2023/12/02 03:00:18;;;;;;;24.55;11.57;;;;;;;-2.60;100.00;100958.34;5110008;28;20062;-54
2023/12/02 03:02:47;;;;;;;26.13;12.70;;;;;;;-2.66;100.00;100963.53;5109820;28;20046;-50
2023/12/02 03:05:15;;;;;;;23.80;11.48;;;;;;;-2.66;100.00;100958.38;5113563;28;20175;-52
2023/12/02 03:07:43;;;;;;;23.25;12.00;;;;;;;-2.66;100.00;100958.38;5113141;28;20082;-52
2023/12/02 03:10:13;;;;;;;25.33;12.02;;;;;;;-2.66;100.00;100968.66;5110960;28;20055;-53
2023/12/02 03:12:41;;;;;;;24.27;12.27;;;;;;;-2.68;100.00;100977.31;5106442;28;20557;-50
2023/12/02 03:15:11;;;;;;;25.17;11.98;;;;;;;-2.69;100.00;100973.00;5110092;28;20090;-52
2023/12/02 03:17:40;;;;;;;25.08;11.65;;;;;;;-2.72;100.00;100967.00;5110224;28;20398;-52
2023/12/02 03:20:09;;;;;;;28.15;12.82;;;;;;;-2.73;100.00;100965.31;5109741;28;20513;-50
2023/12/02 03:22:37;;;;;;;23.08;10.95;;;;;;;-2.70;100.00;100961.00;5109655;28;20044;-51
2023/12/02 03:25:08;;;;;;;26.63;11.68;;;;;;;-2.70;100.00;100956.69;5093733;28;20058;-50
2023/12/02 03:27:39;;;;;;;26.38;12.77;;;;;;;-2.73;100.00;100959.31;5108386;28;20046;-52
2023/12/02 03:30:09;;;;;;;25.27;11.80;;;;;;;-2.72;100.00;100953.28;5110380;28;20516;-50
2023/12/02 03:32:39;;;;;;;27.38;12.40;;;;;;;-2.75;100.00;100954.16;5112766;28;20047;-53
2023/12/02 03:35:08;;;;;;;25.50;12.40;;;;;;;-2.73;100.00;100952.44;5112997;28;20055;-53
2023/12/02 03:37:37;;;;;;;23.52;12.23;;;;;;;-2.73;100.00;100951.56;5109854;28;20092;-53
2023/12/02 03:40:08;;;;;;;24.90;11.77;;;;;;;-2.72;100.00;100961.84;5109734;28;20036;-49
2023/12/02 03:42:37;;;;;;;24.73;11.95;;;;;;;-2.64;100.00;100964.38;5108281;28;20459;-52
2023/12/02 03:45:06;;;;;;;24.63;12.18;;;;;;;-2.70;100.00;100955.84;5109040;28;20562;-53
2023/12/02 03:47:35;;;;;;;27.10;13.00;;;;;;;-2.72;100.00;100958.44;5109745;28;20040;-54
2023/12/02 03:50:09;;;;;;;26.60;12.55;;;;;;;-2.73;100.00;100962.75;5111349;28;20048;-51
2023/12/02 03:52:37;;;;;;;22.33;11.25;;;;;;;-2.73;100.00;100962.75;5111980;28;20553;-51
2023/12/02 03:55:07;;;;;;;28.00;12.75;;;;;;;-2.78;100.00;100955.91;5109319;28;20040;-51
2023/12/02 03:57:35;;;;;;;28.50;12.95;;;;;;;-2.79;100.00;100951.66;5108282;28;20388;-52
2023/12/02 04:00:10;;;;;;;26.17;12.00;;;;;;;-2.75;100.00;100959.31;5111255;28;20100;-50
2023/12/02 04:02:39;;;;;;;25.45;12.07;;;;;;;-2.72;100.00;100959.28;5109935;28;20126;-50
2023/12/02 04:05:12;;;;;;;25.23;12.18;;;;;;;-2.70;100.00;100967.00;5109549;28;20052;-50
2023/12/02 04:07:41;;;;;;;24.90;12.23;;;;;;;-2.68;100.00;100962.69;5108350;28;20093;-53
2023/12/02 04:10:10;;;;;;;26.77;13.02;;;;;;;-2.73;100.00;100967.03;5110570;28;20470;-53
2023/12/02 04:12:38;;;;;;;27.58;12.77;;;;;;;-2.73;100.00;100985.06;5109842;28;20074;-50
2023/12/02 04:15:07;;;;;;;24.80;10.98;;;;;;;-2.70;100.00;100992.75;5111962;28;20364;-49
2023/12/02 04:17:37;;;;;;;25.38;12.27;;;;;;;-2.65;100.00;101000.44;5108923;28;20051;-52
2023/12/02 04:20:14;;;;;;;26.80;13.30;;;;;;;-2.69;100.00;101006.50;5109211;28;20047;-50
2023/12/02 04:22:43;;;;;;;24.98;12.13;;;;;;;-2.68;100.00;101001.31;5109187;28;20036;-52
2023/12/02 04:25:14;;;;;;;25.10;11.93;;;;;;;-2.64;100.00;101003.00;5108897;28;20058;-51
2023/12/02 04:27:43;;;;;;;29.70;12.57;;;;;;;-2.67;100.00;101007.31;5089679;28;20086;-51
2023/12/02 04:30:11;;;;;;;27.05;12.20;;;;;;;-2.63;100.00;101002.16;5108945;28;20494;-51
2023/12/02 04:32:39;;;;;;;27.48;13.02;;;;;;;-2.66;100.00;100999.56;5091702;28;20113;-50
2023/12/02 04:35:10;;;;;;;28.50;12.98;;;;;;;-2.68;100.00;101009.06;5112352;28;20051;-51
2023/12/02 04:37:38;;;;;;;22.90;11.07;;;;;;;-2.68;100.00;101011.63;5112040;28;20131;-53
2023/12/02 04:40:11;;;;;;;24.08;11.40;;;;;;;-2.74;100.00;101003.94;5111793;28;20040;-52
2023/12/02 04:42:40;;;;;;;26.50;13.02;;;;;;;-2.80;100.00;101002.25;5111926;28;20105;-52
2023/12/02 04:45:09;;;;;;;25.92;12.32;;;;;;;-2.73;100.00;101000.50;5110957;28;20054;-52
2023/12/02 04:47:37;;;;;;;26.70;13.07;;;;;;;-2.71;100.00;101003.94;5108630;28;20151;-54
2023/12/02 04:50:07;;;;;;;19.95;9.38;;;;;;;-2.72;100.00;101004.78;5109029;28;20058;-54
2023/12/02 04:52:36;;;;;;;24.33;12.07;;;;;;;-2.75;100.00;101003.09;5108755;28;20043;-54
2023/12/02 04:55:06;;;;;;;26.23;11.68;;;;;;;-2.79;100.00;101003.13;5111587;28;20409;-52
2023/12/02 04:57:34;;;;;;;23.63;11.90;;;;;;;-2.79;100.00;101003.13;5111300;28;20043;-53
2023/12/02 05:00:06;;;;;;;25.60;12.20;;;;;;;-2.77;100.00;101006.53;5111977;28;20082;-51
2023/12/02 05:02:34;;;;;;;23.73;12.00;;;;;;;-2.75;100.00;101004.81;5110265;28;20138;-51
2023/12/02 05:05:02;;;;;;;26.25;12.20;;;;;;;-2.74;100.00;101002.22;5108940;28;20036;-53
2023/12/02 05:07:31;;;;;;;26.48;11.55;;;;;;;-2.73;100.00;101006.53;5108276;28;20048;-50
2023/12/02 05:10:00;;;;;;;27.02;12.35;;;;;;;-2.78;100.00;101010.84;5108670;28;20040;-50
2023/12/02 05:12:29;;;;;;;24.20;11.20;;;;;;;-2.79;100.00;101006.56;5098868;28;20044;-50
2023/12/02 05:14:57;;;;;;;24.63;12.60;;;;;;;-2.84;100.00;101010.88;5110526;28;20461;-50
2023/12/02 05:17:25;;;;;;;24.73;11.80;;;;;;;-2.84;100.00;101010.03;5107809;28;20062;-51
2023/12/02 05:19:54;;;;;;;24.15;12.63;;;;;;;-2.81;100.00;101012.56;5108584;28;20043;-52
2023/12/02 05:22:22;;;;;;;25.00;11.45;;;;;;;-2.83;100.00;101024.63;5108646;28;20039;-50
2023/12/02 05:24:53;;;;;;;25.88;11.88;;;;;;;-2.85;100.00;101016.91;5110751;28;20063;-49
2023/12/02 05:27:22;;;;;;;24.60;10.80;;;;;;;-2.87;100.00;101028.09;5109825;28;20574;-50
2023/12/02 05:29:50;;;;;;;25.92;11.75;;;;;;;-2.84;100.00;101025.47;5114130;28;20071;-52
2023/12/02 05:32:19;;;;;;;28.52;12.27;;;;;;;-2.84;100.00;101025.47;5115295;28;20130;-50
2023/12/02 05:34:47;;;;;;;24.08;11.80;;;;;;;-2.86;100.00;101029.75;5112696;28;20043;-51
2023/12/02 05:37:16;;;;;;;24.92;11.13;;;;;;;-2.88;100.00;101024.63;5111638;28;20494;-52
2023/12/02 05:39:44;;;;;;;22.13;11.05;;;;;;;-2.86;100.00;101034.91;5113770;28;20075;-52
2023/12/02 05:42:12;;;;;;;22.45;10.70;;;;;;;-2.86;100.00;101020.34;5112030;28;20089;-54
2023/12/02 05:44:43;;;;;;;25.15;11.82;;;;;;;-2.86;100.00;101032.34;5112498;28;20504;-51
2023/12/02 05:47:14;;;;;;;23.60;11.27;;;;;;;-2.84;100.00;101025.47;5115009;28;20063;-53
2023/12/02 05:49:44;;;;;;;24.80;12.77;;;;;;;-2.81;100.00;101028.91;5115270;28;20431;-54
2023/12/02 05:52:12;;;;;;;26.15;12.15;;;;;;;-2.81;100.00;101035.75;5115094;28;20097;-54
2023/12/02 05:54:41;;;;;;;22.95;11.18;;;;;;;-2.79;100.00;101031.47;5114811;28;20073;-51
2023/12/02 05:57:09;;;;;;;25.15;11.80;;;;;;;-2.81;100.00;101025.44;5114572;28;20055;-50
2023/12/02 05:59:38;;;;;;;25.08;11.73;;;;;;;-2.80;100.00;101033.16;5114950;28;20497;-53
2023/12/02 06:02:08;;;;;;;22.73;10.88;;;;;;;-2.81;100.00;101035.75;5114838;27;20134;-48
2023/12/02 06:04:36;;;;;;;25.15;11.68;;;;;;;-2.81;100.00;101038.31;5114727;27;20032;-47
2023/12/02 06:07:04;;;;;;;25.13;11.77;;;;;;;-2.81;100.00;101041.78;5112205;28;20122;-47
2023/12/02 06:09:33;;;;;;;22.83;11.68;;;;;;;-2.78;100.00;101054.63;5111723;28;20055;-48
2023/12/02 06:12:02;;;;;;;23.30;11.80;;;;;;;-2.78;100.00;101053.75;5114311;28;20513;-50
2023/12/02 06:14:32;;;;;;;24.33;11.68;;;;;;;-2.74;100.00;101050.28;5114844;28;20461;-51
2023/12/02 06:17:03;;;;;;;25.90;11.63;;;;;;;-2.76;100.00;101040.00;5114061;28;20075;-54
2023/12/02 06:19:32;;;;;;;25.98;12.82;;;;;;;-2.75;100.00;101038.28;5111795;28;20993;-53
2023/12/02 06:22:01;;;;;;;26.02;11.98;;;;;;;-2.78;100.00;101036.59;5113345;28;20491;-53
2023/12/02 06:24:29;;;;;;;26.33;12.50;;;;;;;-2.81;100.00;101035.75;5111654;28;20428;-54
2023/12/02 06:26:57;;;;;;;23.40;11.82;;;;;;;-2.82;100.00;101039.19;5109894;28;20043;-53
2023/12/02 06:29:25;;;;;;;25.75;12.45;;;;;;;-2.86;100.00;101042.63;5110512;28;20659;-53
2023/12/02 06:31:54;;;;;;;26.50;13.07;;;;;;;-2.85;100.00;101052.94;5111295;28;20134;-51
2023/12/02 06:34:22;;;;;;;25.90;12.45;;;;;;;-2.85;100.00;101054.66;5110854;28;20055;-49
2023/12/02 06:36:52;;;;;;;26.88;13.30;;;;;;;-2.84;100.00;101062.38;5110815;28;20035;-51
2023/12/02 06:39:20;;;;;;;28.58;13.43;;;;;;;-2.79;100.00;101064.94;5114298;28;20078;-50
2023/12/02 06:41:49;;;;;;;27.42;12.88;;;;;;;-2.81;100.00;101062.38;5095569;28;20092;-48
2023/12/02 06:44:17;;;;;;;26.17;12.98;;;;;;;-2.85;100.00;101065.81;5114000;28;20039;-47
2023/12/02 06:46:46;;;;;;;27.25;13.68;;;;;;;-2.88;100.00;101073.53;5113919;28;20086;-49
2023/12/02 06:49:14;;;;;;;28.05;13.38;;;;;;;-2.88;100.00;101070.97;5114036;28;20093;-48
2023/12/02 06:51:42;;;;;;;28.88;14.23;;;;;;;-2.85;100.00;101081.28;5095533;28;20067;-46
2023/12/02 06:54:12;;;;;;;28.23;14.65;;;;;;;-2.86;100.00;101078.69;5113964;28;20517;-48
2023/12/02 06:56:40;;;;;;;29.40;13.63;;;;;;;-2.86;100.00;101086.41;5113646;28;20056;-50
2023/12/02 06:59:09;;;;;;;27.90;13.77;;;;;;;-2.82;100.00;101094.13;5113604;28;20047;-48
2023/12/02 07:01:37;;;;;;;28.10;14.45;;;;;;;-2.81;100.00;101102.69;5113792;28;20047;-47
2023/12/02 07:04:05;;;;;;;29.67;14.35;;;;;;;-2.82;100.00;101103.53;5095032;28;20063;-47
2023/12/02 07:06:33;;;;;;;29.50;14.90;;;;;;;-2.81;100.00;101118.13;5113450;28;20047;-47
2023/12/02 07:09:02;;;;;;;28.95;13.55;;;;;;;-2.80;100.00;101120.69;5113469;28;20054;-48
2023/12/02 07:11:31;;;;;;;27.23;14.13;;;;;;;-2.77;100.00;101119.81;5113099;28;20101;-46
2023/12/02 07:13:59;;;;;;;30.52;14.45;;;;;;;-2.76;100.00;101119.81;5113275;28;20046;-47
2023/12/02 07:16:28;;;;;;;27.58;14.60;;;;;;;-2.76;100.00;101124.97;5113599;28;20134;-48
2023/12/02 07:18:56;;;;;;;30.10;15.27;;;;;;;-2.74;100.00;101124.94;5095033;28;20092;-48
2023/12/02 07:21:24;;;;;;;31.67;15.77;;;;;;;-2.72;100.00;101125.81;5113511;28;20443;-47
2023/12/02 07:23:52;;;;;;;30.05;15.18;;;;;;;-2.72;100.00;101133.53;5113292;28;20376;-47
2023/12/02 07:26:21;;;;;;;30.80;15.52;;;;;;;-2.65;100.00;101140.34;5113033;28;20414;-46
2023/12/02 07:28:53;;;;;;;31.40;15.68;;;;;;;-2.62;100.00;101144.63;5113211;28;20036;-45
2023/12/02 07:31:21;;;;;;;29.48;14.75;;;;;;;-2.62;100.00;101142.94;5113266;28;20039;-46
2023/12/02 07:33:49;;;;;;;29.15;14.82;;;;;;;-2.62;100.00;101148.09;5094702;28;20031;-48
2023/12/02 07:36:19;;;;;;;28.40;14.43;;;;;;;-2.60;100.00;101148.06;5113113;28;20427;-48
2023/12/02 07:38:47;;;;;;;32.08;16.58;;;;;;;-2.61;100.00;101149.78;5113017;28;20395;-47
2023/12/02 07:41:15;;;;;;;30.92;15.52;;;;;;;-2.58;100.00;101151.47;5112908;28;20126;-47
2023/12/02 07:43:44;;;;;;;28.58;15.07;;;;;;;-2.57;100.00;101156.63;5112725;28;20420;-47
2023/12/02 07:46:15;;;;;;;24.70;13.15;;;;;;;-2.52;100.00;101153.16;5112919;28;20046;-48
2023/12/02 07:48:44;;;;;;;29.10;14.48;;;;;;;-2.49;100.00;101150.59;5112171;28;20445;-48
2023/12/02 07:51:12;;;;;;;27.92;14.15;;;;;;;-2.49;100.00;101156.59;5112703;28;20093;-47
2023/12/02 07:53:40;;;;;;;28.08;14.13;;;;;;;-2.47;100.00;101149.69;5094207;28;20498;-47
2023/12/02 07:56:09;;;;;;;29.35;13.57;;;;;;;-2.43;100.00;101158.25;5112789;28;20047;-47
2023/12/02 07:58:37;;;;;;;29.45;13.85;;;;;;;-2.41;100.00;101164.28;5112801;28;20398;-47
2023/12/02 08:01:07;;;;;;;29.10;14.60;;;;;;;-2.37;100.00;101171.13;5112560;28;20039;-45
2023/12/02 08:03:37;;;;;;;26.73;13.45;;;;;;;-2.35;100.00;101164.22;5112431;28;20052;-45
2023/12/02 08:06:06;;;;;;;26.88;12.77;;;;;;;-2.35;100.00;101161.63;5112450;28;20039;-46
2023/12/02 08:08:34;;;;;;;31.10;14.68;;;;;;;-2.30;100.00;101165.06;5112254;28;20070;-45
2023/12/02 08:11:03;;;;;;;28.83;13.77;;;;;;;-2.27;100.00;101169.34;5093437;28;20154;-48
2023/12/02 08:13:32;;;;;;;27.65;12.88;;;;;;;-2.25;100.00;101172.75;5112292;28;20119;-52
2023/12/02 08:16:00;;;;;;;27.80;14.32;;;;;;;-2.24;100.00;101167.56;5112291;28;20138;-45
2023/12/02 08:18:28;;;;;;;23.95;13.45;;;;;;;-2.22;100.00;101165.84;5111927;28;20048;-45
2023/12/02 08:20:58;;;;;;;25.83;13.05;;;;;;;-2.18;100.00;101171.84;5112065;28;20097;-46
2023/12/02 08:23:27;;;;;;;28.02;14.10;;;;;;;-2.15;100.00;101176.13;5112192;28;20047;-49
2023/12/02 08:25:55;;;;;;;25.67;13.18;;;;;;;-2.16;100.00;101190.72;5112209;28;20059;-48
2023/12/02 08:28:23;;;;;;;26.67;13.32;;;;;;;-2.10;100.00;101192.41;5112090;28;20075;-46
2023/12/02 08:30:51;;;;;;;28.17;13.32;;;;;;;-2.09;100.00;101192.38;5112014;28;20054;-47
2023/12/02 08:33:19;;;;;;;26.60;13.65;;;;;;;-2.02;100.00;101188.03;5112061;28;20048;-47
2023/12/02 08:35:48;;;;;;;24.88;12.43;;;;;;;-1.96;100.00;101185.44;5111938;28;20040;-46
2023/12/02 08:38:17;;;;;;;26.92;12.68;;;;;;;-1.91;100.00;101183.69;5111907;28;20079;-47
2023/12/02 08:40:45;;;;;;;26.17;13.20;;;;;;;-1.81;100.00;101186.16;5112134;28;20044;-51
2023/12/02 08:43:13;;;;;;;26.25;13.25;;;;;;;-1.80;100.00;101185.28;5093787;28;20050;-51
2023/12/02 08:45:42;;;;;;;25.52;12.88;;;;;;;-1.78;100.00;101187.00;5112011;28;20478;-47
2023/12/02 08:48:10;;;;;;;27.48;12.45;;;;;;;-1.73;100.00;101189.56;5111929;28;20050;-48
2023/12/02 08:50:38;;;;;;;26.05;13.63;;;;;;;-1.74;100.00;101193.00;5111951;28;20050;-50
2023/12/02 08:53:07;;;;;;;24.15;12.95;;;;;;;-1.73;100.00;101205.88;5111950;28;20056;-53
2023/12/02 08:55:37;;;;;;;25.40;13.30;;;;;;;-1.62;100.00;101208.38;5111720;28;20042;-49
2023/12/02 08:58:05;;;;;;;25.75;12.32;;;;;;;-1.54;100.00;101201.41;5111900;28;20123;-46
2023/12/02 09:00:33;;;;;;;24.67;13.27;;;;;;;-1.41;100.00;101204.72;5112088;28;20043;-46
2023/12/02 09:03:01;;;;;;;26.27;14.15;;;;;;;-1.28;100.00;101210.63;5115812;28;20043;-49
2023/12/02 09:05:30;;;;;;;28.27;14.13;;;;;;;-1.17;100.00;101222.56;5116118;28;20494;-49
2023/12/02 09:08:00;;;;;;;25.10;13.10;;;;;;;-1.07;100.00;101216.44;5115714;28;20126;-50
2023/12/02 09:10:28;;;;;;;25.02;12.68;;;;;;;-0.97;100.00;101217.19;5115765;28;20039;-51
2023/12/02 09:12:58;;;;;;;23.55;12.50;;;;;;;-0.92;100.00;101216.25;5115345;28;20062;-47
2023/12/02 09:15:40;;;;;;;23.23;12.15;;;;;;;-0.82;100.00;101218.72;5115205;28;20135;-47
2023/12/02 09:18:13;;;;;;;24.10;13.63;;;;;;;-0.70;100.00;101224.59;5097431;28;20082;-48
2023/12/02 09:20:46;;;;;;;26.00;13.02;;;;;;;-0.57;100.00;101224.47;5115616;28;20455;-47
2023/12/02 09:23:16;;;;;;;23.85;12.52;;;;;;;-0.47;100.00;101236.38;5115815;28;20066;-47
2023/12/02 09:25:46;;;;;;;25.65;13.18;;;;;;;-0.30;100.00;101230.13;5097173;28;20051;-49
2023/12/02 09:28:23;;;;;;;23.08;12.23;;;;;;;-0.21;100.00;101241.19;5097234;28;20043;-49
2023/12/02 09:31:06;;;;;;;25.42;12.98;;;;;;;-0.14;100.00;101225.59;5097136;28;20081;-48
2023/12/02 09:33:39;;;;;;;24.02;12.52;;;;;;;0.02;100.00;101231.41;5097006;28;20077;-49
2023/12/02 09:36:24;;;;;;;25.40;12.98;;;;;;;0.19;100.00;101233.72;5115228;28;20035;-46
2023/12/02 09:38:54;;;;;;;25.30;12.85;;;;;;;0.08;100.00;101237.34;5115375;28;20100;-50
2023/12/02 09:41:33;;;;;;;25.17;13.18;;;;;;;0.15;100.00;101235.50;5115220;28;20383;-46
2023/12/02 09:44:30;;;;;;;27.00;12.98;;;;;;;0.22;100.00;101238.84;5115037;28;20039;-53
2023/12/02 09:47:11;;;;;;;25.08;12.98;;;;;;;0.23;100.00;101240.56;5112381;28;20055;-50
2023/12/02 09:49:54;;;;;;;23.98;12.80;;;;;;;0.31;100.00;101241.28;5113201;28;20985;-49
2023/12/02 09:52:30;;;;;;;26.98;13.27;;;;;;;0.38;100.00;101242.88;5114912;28;20079;-49
2023/12/02 09:55:11;;;;;;;26.55;13.32;;;;;;;0.36;100.00;101249.84;5114802;28;20052;-46
2023/12/02 09:57:47;;;;;;;26.85;13.45;;;;;;;0.31;100.00;101249.06;5115083;28;20475;-47
2023/12/02 10:00:23;;;;;;;27.33;14.30;;;;;;;0.44;100.00;101240.22;5115072;28;20065;-49
2023/12/02 10:03:04;;;;;;;27.00;14.15;;;;;;;0.49;100.00;101233.22;5114850;28;20035;-47
2023/12/02 10:05:43;;;;;;;27.27;13.95;;;;;;;0.49;100.00;101232.34;5114680;28;20050;-51
2023/12/02 10:08:20;;;;;;;27.02;13.77;;;;;;;0.46;100.00;101238.47;5114613;28;20368;-47
2023/12/02 10:11:04;;;;;;;25.98;13.82;;;;;;;0.49;100.00;101240.13;5114566;28;20044;-46
2023/12/02 10:13:38;;;;;;;;;;;;;;;0.53;100.00;101243.53;5114623;28;20096;-45
2023/12/02 10:16:14;;;;;;;27.75;14.73;;;;;;;0.59;100.00;101238.25;5114525;28;19924;-47
2023/12/02 10:18:48;;;;;;;28.65;14.60;;;;;;;0.66;100.00;101239.84;5114413;28;20089;-46
2023/12/02 10:21:20;;;;;;;31.02;15.35;;;;;;;0.72;100.00;101241.47;5114458;28;20043;-45
2023/12/02 10:23:59;;;;;;;26.13;14.48;;;;;;;0.70;100.00;101241.50;5114667;28;20467;-47
2023/12/02 10:26:29;;;;;;;27.50;14.77;;;;;;;0.76;100.00;101243.97;5114090;28;20501;-45
2023/12/02 10:29:13;;;;;;;28.60;14.57;;;;;;;0.79;100.00;101237.88;5095518;28;20051;-48
2023/12/02 10:32:00;;;;;;;28.95;15.02;;;;;;;0.83;100.00;101230.06;5114215;28;20061;-46
2023/12/02 10:34:31;;;;;;;29.88;15.07;;;;;;;0.91;100.00;101240.25;5114601;28;20052;-48
2023/12/02 10:37:00;;;;;;;31.60;16.00;;;;;;;0.94;100.00;101239.34;5114090;28;20048;-45
2023/12/02 10:39:40;;;;;;;28.20;15.27;;;;;;;0.84;100.00;101233.47;5114149;28;20048;-46
2023/12/02 10:42:15;;;;;;;29.73;14.65;;;;;;;0.96;100.00;101229.81;5114075;28;20122;-47
2023/12/02 10:44:48;;;;;;;29.17;14.95;;;;;;;0.98;100.00;101225.44;5113984;28;20391;-45
2023/12/02 10:47:18;;;;;;;28.20;14.57;;;;;;;1.02;100.00;101232.28;5113852;28;20070;-48
2023/12/02 10:49:48;;;;;;;30.48;15.38;;;;;;;0.96;100.00;101229.81;5095558;28;20142;-47
2023/12/02 10:52:18;;;;;;;28.33;14.35;;;;;;;1.01;100.00;101225.41;5113992;28;20461;-46
2023/12/02 10:54:50;;;;;;;;;;;;;;;1.03;100.00;101221.03;5114364;28;20126;-46
2023/12/02 10:57:22;;;;;;;28.90;14.52;;;;;;;0.98;100.00;101230.63;5113842;28;19928;-46
2023/12/02 10:59:58;;;;;;;26.58;13.82;;;;;;;0.98;100.00;101225.44;5113756;28;20507;-47
2023/12/02 11:02:38;;;;;;;28.33;14.80;;;;;;;0.99;100.00;101228.00;5113681;28;20706;-48
2023/12/02 11:05:19;;;;;;;30.20;15.45;;;;;;;1.03;100.00;101234.00;5113572;28;20122;-46
2023/12/02 11:07:50;;;;;;;30.13;15.65;;;;;;;1.03;100.00;101235.75;5113552;28;20100;-49
2023/12/02 11:10:28;;;;;;;32.28;16.15;;;;;;;0.98;100.00;101230.63;5113297;28;20093;-46
2023/12/02 11:13:01;;;;;;;28.50;14.45;;;;;;;1.07;100.00;101227.03;5111968;28;20047;-47
2023/12/02 11:15:30;;;;;;;31.52;16.40;;;;;;;1.05;100.00;101229.66;5110107;28;20091;-49
2023/12/02 11:18:04;;;;;;;30.27;15.52;;;;;;;1.09;100.00;101228.72;5111976;28;20044;-49